sensor_id;sensor_type;location;lat;lon;timestamp;P1;durP1;ratioP1;P2;durP2;ratioP2
72684;SDS011;61365;52.162;4.500;2023-03-13T00:01:26;29.35;;;5.10;;
72684;SDS011;61365;52.162;4.500;2023-03-13T00:04:03;24.90;;;5.68;;
72684;SDS011;61365;52.162;4.500;2023-03-13T00:06:31;27.58;;;6.93;;
72684;SDS011;61365;52.162;4.500;2023-03-13T00:09:03;35.70;;;6.05;;
72684;SDS011;61365;52.162;4.500;2023-03-13T00:11:32;30.45;;;6.28;;
72684;SDS011;61365;52.162;4.500;2023-03-13T00:14:00;26.98;;;6.28;;
72684;SDS011;61365;52.162;4.500;2023-03-13T00:16:29;25.70;;;6.82;;
72684;SDS011;61365;52.162;4.500;2023-03-13T00:18:56;26.30;;;7.22;;
72684;SDS011;61365;52.162;4.500;2023-03-13T00:21:24;24.23;;;7.72;;
72684;SDS011;61365;52.162;4.500;2023-03-13T00:23:53;28.63;;;9.88;;
72684;SDS011;61365;52.162;4.500;2023-03-13T00:26:21;25.70;;;8.30;;
72684;SDS011;61365;52.162;4.500;2023-03-13T00:28:51;25.48;;;9.18;;
72684;SDS011;61365;52.162;4.500;2023-03-13T00:33:51;22.50;;;8.25;;
72684;SDS011;61365;52.162;4.500;2023-03-13T00:36:24;21.88;;;8.43;;
72684;SDS011;61365;52.162;4.500;2023-03-13T00:38:57;18.10;;;8.50;;
72684;SDS011;61365;52.162;4.500;2023-03-13T00:41:25;29.30;;;9.32;;
72684;SDS011;61365;52.162;4.500;2023-03-13T00:43:55;25.98;;;9.52;;
72684;SDS011;61365;52.162;4.500;2023-03-13T00:46:23;21.15;;;9.75;;
72684;SDS011;61365;52.162;4.500;2023-03-13T00:48:52;20.33;;;10.35;;
72684;SDS011;61365;52.162;4.500;2023-03-13T00:51:19;21.52;;;9.52;;
72684;SDS011;61365;52.162;4.500;2023-03-13T00:53:48;23.33;;;10.30;;
72684;SDS011;61365;52.162;4.500;2023-03-13T00:56:15;18.85;;;10.25;;
72684;SDS011;61365;52.162;4.500;2023-03-13T00:58:44;26.90;;;10.30;;
72684;SDS011;61365;52.162;4.500;2023-03-13T01:01:16;25.23;;;10.70;;
72684;SDS011;61365;52.162;4.500;2023-03-13T01:03:52;27.17;;;10.40;;
72684;SDS011;61365;52.162;4.500;2023-03-13T01:06:22;21.58;;;10.45;;
72684;SDS011;61365;52.162;4.500;2023-03-13T01:08:52;15.57;;;9.63;;
72684;SDS011;61365;52.162;4.500;2023-03-13T01:11:20;21.55;;;10.57;;
72684;SDS011;61365;52.162;4.500;2023-03-13T01:13:53;22.80;;;9.55;;
72684;SDS011;61365;52.162;4.500;2023-03-13T01:16:22;22.50;;;8.68;;
72684;SDS011;61365;52.162;4.500;2023-03-13T01:18:50;21.05;;;9.98;;
72684;SDS011;61365;52.162;4.500;2023-03-13T01:21:20;22.67;;;10.05;;
72684;SDS011;61365;52.162;4.500;2023-03-13T01:23:49;18.92;;;9.50;;
72684;SDS011;61365;52.162;4.500;2023-03-13T01:26:18;22.55;;;9.27;;
72684;SDS011;61365;52.162;4.500;2023-03-13T01:28:45;21.33;;;9.25;;
72684;SDS011;61365;52.162;4.500;2023-03-13T01:31:16;15.85;;;8.93;;
72684;SDS011;61365;52.162;4.500;2023-03-13T01:33:44;20.52;;;8.95;;
72684;SDS011;61365;52.162;4.500;2023-03-13T01:36:12;22.08;;;9.15;;
72684;SDS011;61365;52.162;4.500;2023-03-13T01:38:39;20.92;;;8.25;;
72684;SDS011;61365;52.162;4.500;2023-03-13T01:41:06;17.40;;;8.35;;
72684;SDS011;61365;52.162;4.500;2023-03-13T01:43:35;21.90;;;9.70;;
72684;SDS011;61365;52.162;4.500;2023-03-13T01:46:13;25.23;;;9.52;;
72684;SDS011;61365;52.162;4.500;2023-03-13T01:48:44;19.58;;;9.05;;
72684;SDS011;61365;52.162;4.500;2023-03-13T01:51:32;22.25;;;9.05;;
72684;SDS011;61365;52.162;4.500;2023-03-13T01:54:19;22.40;;;9.15;;
72684;SDS011;61365;52.162;4.500;2023-03-13T01:57:00;23.40;;;9.93;;
72684;SDS011;61365;52.162;4.500;2023-03-13T01:59:37;20.00;;;8.73;;
72684;SDS011;61365;52.162;4.500;2023-03-13T02:02:18;18.25;;;8.40;;
72684;SDS011;61365;52.162;4.500;2023-03-13T02:04:50;21.00;;;9.30;;
72684;SDS011;61365;52.162;4.500;2023-03-13T02:07:25;16.88;;;7.88;;
72684;SDS011;61365;52.162;4.500;2023-03-13T02:09:59;18.10;;;8.80;;
72684;SDS011;61365;52.162;4.500;2023-03-13T02:12:30;19.00;;;8.90;;
72684;SDS011;61365;52.162;4.500;2023-03-13T02:15:04;17.90;;;8.25;;
72684;SDS011;61365;52.162;4.500;2023-03-13T02:17:41;16.75;;;8.15;;
72684;SDS011;61365;52.162;4.500;2023-03-13T02:20:11;15.32;;;6.75;;
72684;SDS011;61365;52.162;4.500;2023-03-13T02:25:47;15.27;;;6.78;;
72684;SDS011;61365;52.162;4.500;2023-03-13T02:28:31;16.77;;;7.25;;
72684;SDS011;61365;52.162;4.500;2023-03-13T02:31:03;16.25;;;7.20;;
72684;SDS011;61365;52.162;4.500;2023-03-13T02:33:33;13.73;;;6.40;;
72684;SDS011;61365;52.162;4.500;2023-03-13T02:36:05;13.43;;;6.60;;
72684;SDS011;61365;52.162;4.500;2023-03-13T02:38:37;15.35;;;5.95;;
72684;SDS011;61365;52.162;4.500;2023-03-13T02:41:20;13.43;;;7.03;;
72684;SDS011;61365;52.162;4.500;2023-03-13T02:43:48;17.25;;;6.95;;
72684;SDS011;61365;52.162;4.500;2023-03-13T02:46:16;18.63;;;6.60;;
72684;SDS011;61365;52.162;4.500;2023-03-13T02:48:46;12.20;;;7.35;;
72684;SDS011;61365;52.162;4.500;2023-03-13T02:54:05;13.60;;;7.18;;
72684;SDS011;61365;52.162;4.500;2023-03-13T02:56:36;20.23;;;7.75;;
72684;SDS011;61365;52.162;4.500;2023-03-13T02:59:06;16.38;;;6.72;;
72684;SDS011;61365;52.162;4.500;2023-03-13T03:01:35;11.05;;;5.55;;
72684;SDS011;61365;52.162;4.500;2023-03-13T03:04:01;14.27;;;4.78;;
72684;SDS011;61365;52.162;4.500;2023-03-13T03:06:28;13.23;;;4.78;;
72684;SDS011;61365;52.162;4.500;2023-03-13T03:08:54;10.68;;;4.53;;
72684;SDS011;61365;52.162;4.500;2023-03-13T03:11:21;12.50;;;4.90;;
72684;SDS011;61365;52.162;4.500;2023-03-13T03:13:47;13.45;;;4.40;;
72684;SDS011;61365;52.162;4.500;2023-03-13T03:16:14;13.70;;;3.95;;
72684;SDS011;61365;52.162;4.500;2023-03-13T03:18:43;9.65;;;3.70;;
72684;SDS011;61365;52.162;4.500;2023-03-13T03:21:09;14.30;;;3.80;;
72684;SDS011;61365;52.162;4.500;2023-03-13T03:23:36;13.57;;;4.13;;
72684;SDS011;61365;52.162;4.500;2023-03-13T03:26:05;9.95;;;3.30;;
72684;SDS011;61365;52.162;4.500;2023-03-13T03:28:32;12.50;;;4.00;;
72684;SDS011;61365;52.162;4.500;2023-03-13T03:31:05;14.93;;;3.10;;
72684;SDS011;61365;52.162;4.500;2023-03-13T03:33:35;11.15;;;3.33;;
72684;SDS011;61365;52.162;4.500;2023-03-13T03:36:03;9.02;;;3.10;;
72684;SDS011;61365;52.162;4.500;2023-03-13T03:38:39;11.75;;;3.33;;
72684;SDS011;61365;52.162;4.500;2023-03-13T03:41:06;13.18;;;3.83;;
72684;SDS011;61365;52.162;4.500;2023-03-13T03:43:34;11.88;;;3.88;;
72684;SDS011;61365;52.162;4.500;2023-03-13T03:46:01;9.52;;;3.15;;
72684;SDS011;61365;52.162;4.500;2023-03-13T03:48:28;9.50;;;3.13;;
72684;SDS011;61365;52.162;4.500;2023-03-13T03:50:54;14.68;;;4.00;;
72684;SDS011;61365;52.162;4.500;2023-03-13T03:53:21;10.15;;;3.45;;
72684;SDS011;61365;52.162;4.500;2023-03-13T03:55:48;12.55;;;3.80;;
72684;SDS011;61365;52.162;4.500;2023-03-13T03:58:14;12.30;;;3.22;;
72684;SDS011;61365;52.162;4.500;2023-03-13T04:00:44;12.52;;;3.58;;
72684;SDS011;61365;52.162;4.500;2023-03-13T04:03:12;10.15;;;3.63;;
72684;SDS011;61365;52.162;4.500;2023-03-13T04:05:39;11.38;;;3.70;;
72684;SDS011;61365;52.162;4.500;2023-03-13T04:08:06;11.15;;;3.28;;
72684;SDS011;61365;52.162;4.500;2023-03-13T04:10:33;10.15;;;3.45;;
72684;SDS011;61365;52.162;4.500;2023-03-13T04:13:00;10.57;;;4.05;;
72684;SDS011;61365;52.162;4.500;2023-03-13T04:15:27;13.80;;;3.95;;
72684;SDS011;61365;52.162;4.500;2023-03-13T04:17:54;8.73;;;3.50;;
72684;SDS011;61365;52.162;4.500;2023-03-13T04:20:20;8.00;;;3.53;;
72684;SDS011;61365;52.162;4.500;2023-03-13T04:22:47;11.07;;;3.42;;
72684;SDS011;61365;52.162;4.500;2023-03-13T04:25:13;9.90;;;2.92;;
72684;SDS011;61365;52.162;4.500;2023-03-13T04:27:40;8.25;;;3.85;;
72684;SDS011;61365;52.162;4.500;2023-03-13T04:30:06;9.40;;;3.67;;
72684;SDS011;61365;52.162;4.500;2023-03-13T04:32:34;9.15;;;3.72;;
72684;SDS011;61365;52.162;4.500;2023-03-13T04:35:00;9.32;;;3.58;;
72684;SDS011;61365;52.162;4.500;2023-03-13T04:37:26;11.88;;;3.50;;
72684;SDS011;61365;52.162;4.500;2023-03-13T04:39:53;11.25;;;3.40;;
72684;SDS011;61365;52.162;4.500;2023-03-13T04:42:19;8.82;;;3.80;;
72684;SDS011;61365;52.162;4.500;2023-03-13T04:44:45;9.70;;;3.25;;
72684;SDS011;61365;52.162;4.500;2023-03-13T04:47:12;13.02;;;4.40;;
72684;SDS011;61365;52.162;4.500;2023-03-13T04:49:38;17.30;;;4.10;;
72684;SDS011;61365;52.162;4.500;2023-03-13T04:52:05;8.50;;;3.90;;
72684;SDS011;61365;52.162;4.500;2023-03-13T04:54:32;13.38;;;3.83;;
72684;SDS011;61365;52.162;4.500;2023-03-13T04:56:58;14.25;;;4.28;;
72684;SDS011;61365;52.162;4.500;2023-03-13T04:59:24;12.48;;;3.70;;
72684;SDS011;61365;52.162;4.500;2023-03-13T05:01:50;14.05;;;3.70;;
72684;SDS011;61365;52.162;4.500;2023-03-13T05:04:17;16.65;;;3.50;;
72684;SDS011;61365;52.162;4.500;2023-03-13T05:06:43;13.73;;;4.25;;
72684;SDS011;61365;52.162;4.500;2023-03-13T05:09:09;13.07;;;3.65;;
72684;SDS011;61365;52.162;4.500;2023-03-13T05:11:36;16.73;;;4.43;;
72684;SDS011;61365;52.162;4.500;2023-03-13T05:14:02;13.82;;;3.75;;
72684;SDS011;61365;52.162;4.500;2023-03-13T05:16:29;20.48;;;4.00;;
72684;SDS011;61365;52.162;4.500;2023-03-13T05:18:55;16.50;;;3.90;;
72684;SDS011;61365;52.162;4.500;2023-03-13T05:21:21;12.93;;;3.35;;
72684;SDS011;61365;52.162;4.500;2023-03-13T05:23:48;14.70;;;3.17;;
72684;SDS011;61365;52.162;4.500;2023-03-13T05:26:14;15.77;;;3.90;;
72684;SDS011;61365;52.162;4.500;2023-03-13T05:28:40;11.18;;;2.70;;
72684;SDS011;61365;52.162;4.500;2023-03-13T05:31:07;14.85;;;3.30;;
72684;SDS011;61365;52.162;4.500;2023-03-13T05:33:33;16.67;;;3.40;;
72684;SDS011;61365;52.162;4.500;2023-03-13T05:35:59;8.63;;;3.25;;
72684;SDS011;61365;52.162;4.500;2023-03-13T05:38:26;23.60;;;3.30;;
72684;SDS011;61365;52.162;4.500;2023-03-13T05:40:52;20.77;;;3.60;;
72684;SDS011;61365;52.162;4.500;2023-03-13T05:43:18;11.20;;;2.97;;
72684;SDS011;61365;52.162;4.500;2023-03-13T05:45:45;15.27;;;3.60;;
72684;SDS011;61365;52.162;4.500;2023-03-13T05:48:11;10.52;;;3.05;;
72684;SDS011;61365;52.162;4.500;2023-03-13T05:50:38;14.73;;;3.67;;
72684;SDS011;61365;52.162;4.500;2023-03-13T05:53:04;17.25;;;3.17;;
72684;SDS011;61365;52.162;4.500;2023-03-13T05:55:30;15.45;;;3.15;;
72684;SDS011;61365;52.162;4.500;2023-03-13T05:57:57;10.43;;;2.80;;
72684;SDS011;61365;52.162;4.500;2023-03-13T06:00:23;17.75;;;3.42;;
72684;SDS011;61365;52.162;4.500;2023-03-13T06:02:49;14.48;;;3.05;;
72684;SDS011;61365;52.162;4.500;2023-03-13T06:05:16;11.38;;;3.20;;
72684;SDS011;61365;52.162;4.500;2023-03-13T06:07:42;17.33;;;3.30;;
72684;SDS011;61365;52.162;4.500;2023-03-13T06:10:09;14.20;;;3.25;;
72684;SDS011;61365;52.162;4.500;2023-03-13T06:12:36;12.98;;;2.88;;
72684;SDS011;61365;52.162;4.500;2023-03-13T06:15:03;11.45;;;3.10;;
72684;SDS011;61365;52.162;4.500;2023-03-13T06:17:31;12.70;;;3.10;;
72684;SDS011;61365;52.162;4.500;2023-03-13T06:19:58;10.88;;;2.85;;
72684;SDS011;61365;52.162;4.500;2023-03-13T06:22:24;14.27;;;3.30;;
72684;SDS011;61365;52.162;4.500;2023-03-13T06:24:51;13.60;;;3.72;;
72684;SDS011;61365;52.162;4.500;2023-03-13T06:27:17;9.18;;;3.22;;
72684;SDS011;61365;52.162;4.500;2023-03-13T06:29:44;16.40;;;3.65;;
72684;SDS011;61365;52.162;4.500;2023-03-13T06:32:10;14.68;;;3.30;;
72684;SDS011;61365;52.162;4.500;2023-03-13T06:34:37;11.23;;;3.10;;
72684;SDS011;61365;52.162;4.500;2023-03-13T06:37:03;16.45;;;3.53;;
72684;SDS011;61365;52.162;4.500;2023-03-13T06:39:30;9.80;;;2.90;;
72684;SDS011;61365;52.162;4.500;2023-03-13T06:41:56;13.00;;;3.55;;
72684;SDS011;61365;52.162;4.500;2023-03-13T06:44:23;14.40;;;3.30;;
72684;SDS011;61365;52.162;4.500;2023-03-13T06:46:50;18.58;;;3.88;;
72684;SDS011;61365;52.162;4.500;2023-03-13T06:49:16;11.27;;;2.80;;
72684;SDS011;61365;52.162;4.500;2023-03-13T06:51:43;13.95;;;3.38;;
72684;SDS011;61365;52.162;4.500;2023-03-13T06:54:12;9.63;;;3.15;;
72684;SDS011;61365;52.162;4.500;2023-03-13T06:56:38;14.65;;;3.22;;
72684;SDS011;61365;52.162;4.500;2023-03-13T06:59:05;12.63;;;3.33;;
72684;SDS011;61365;52.162;4.500;2023-03-13T07:01:32;11.00;;;3.28;;
72684;SDS011;61365;52.162;4.500;2023-03-13T07:03:58;12.82;;;3.53;;
72684;SDS011;61365;52.162;4.500;2023-03-13T07:06:24;13.13;;;2.95;;
72684;SDS011;61365;52.162;4.500;2023-03-13T07:08:51;9.27;;;2.60;;
72684;SDS011;61365;52.162;4.500;2023-03-13T07:11:18;14.15;;;3.40;;
72684;SDS011;61365;52.162;4.500;2023-03-13T07:13:44;8.10;;;2.83;;
72684;SDS011;61365;52.162;4.500;2023-03-13T07:16:11;16.63;;;3.55;;
72684;SDS011;61365;52.162;4.500;2023-03-13T07:18:39;17.35;;;3.05;;
72684;SDS011;61365;52.162;4.500;2023-03-13T07:23:38;9.23;;;2.65;;
72684;SDS011;61365;52.162;4.500;2023-03-13T07:26:09;8.55;;;2.75;;
72684;SDS011;61365;52.162;4.500;2023-03-13T07:28:41;11.60;;;2.97;;
72684;SDS011;61365;52.162;4.500;2023-03-13T07:31:12;11.40;;;2.97;;
72684;SDS011;61365;52.162;4.500;2023-03-13T07:33:41;13.18;;;3.22;;
72684;SDS011;61365;52.162;4.500;2023-03-13T07:36:10;13.07;;;3.47;;
72684;SDS011;61365;52.162;4.500;2023-03-13T07:38:39;9.70;;;2.47;;
72684;SDS011;61365;52.162;4.500;2023-03-13T07:41:05;10.70;;;2.67;;
72684;SDS011;61365;52.162;4.500;2023-03-13T07:43:32;12.73;;;2.88;;
72684;SDS011;61365;52.162;4.500;2023-03-13T07:45:59;16.98;;;3.33;;
72684;SDS011;61365;52.162;4.500;2023-03-13T07:48:29;16.92;;;3.63;;
72684;SDS011;61365;52.162;4.500;2023-03-13T07:50:59;12.80;;;2.55;;
72684;SDS011;61365;52.162;4.500;2023-03-13T07:53:26;15.38;;;3.67;;
72684;SDS011;61365;52.162;4.500;2023-03-13T07:56:13;15.43;;;3.35;;
72684;SDS011;61365;52.162;4.500;2023-03-13T07:58:42;14.93;;;3.15;;
72684;SDS011;61365;52.162;4.500;2023-03-13T08:01:19;10.80;;;2.88;;
72684;SDS011;61365;52.162;4.500;2023-03-13T08:03:49;13.70;;;3.72;;
72684;SDS011;61365;52.162;4.500;2023-03-13T08:06:17;9.07;;;2.50;;
72684;SDS011;61365;52.162;4.500;2023-03-13T08:08:46;10.25;;;3.28;;
72684;SDS011;61365;52.162;4.500;2023-03-13T08:11:13;10.73;;;2.40;;
72684;SDS011;61365;52.162;4.500;2023-03-13T08:13:43;10.68;;;2.40;;
72684;SDS011;61365;52.162;4.500;2023-03-13T08:16:12;10.40;;;2.35;;
72684;SDS011;61365;52.162;4.500;2023-03-13T08:18:40;12.05;;;2.38;;
72684;SDS011;61365;52.162;4.500;2023-03-13T08:21:12;9.43;;;2.10;;
72684;SDS011;61365;52.162;4.500;2023-03-13T08:23:41;12.02;;;2.83;;
72684;SDS011;61365;52.162;4.500;2023-03-13T08:26:10;15.75;;;2.70;;
72684;SDS011;61365;52.162;4.500;2023-03-13T08:28:39;10.90;;;2.40;;
72684;SDS011;61365;52.162;4.500;2023-03-13T08:33:46;10.38;;;2.10;;
72684;SDS011;61365;52.162;4.500;2023-03-13T08:36:46;12.10;;;2.55;;
72684;SDS011;61365;52.162;4.500;2023-03-13T08:39:08;14.55;;;2.78;;
72684;SDS011;61365;52.162;4.500;2023-03-13T08:41:38;13.37;;;2.30;;
72684;SDS011;61365;52.162;4.500;2023-03-13T08:44:06;15.82;;;2.35;;
72684;SDS011;61365;52.162;4.500;2023-03-13T08:46:36;11.32;;;2.47;;
72684;SDS011;61365;52.162;4.500;2023-03-13T08:49:04;14.75;;;3.08;;
72684;SDS011;61365;52.162;4.500;2023-03-13T08:51:32;11.35;;;2.55;;
72684;SDS011;61365;52.162;4.500;2023-03-13T08:54:00;11.77;;;2.28;;
72684;SDS011;61365;52.162;4.500;2023-03-13T08:56:28;12.68;;;2.70;;
72684;SDS011;61365;52.162;4.500;2023-03-13T08:58:57;11.65;;;2.40;;
72684;SDS011;61365;52.162;4.500;2023-03-13T09:01:27;15.77;;;2.47;;
72684;SDS011;61365;52.162;4.500;2023-03-13T09:03:57;18.95;;;2.40;;
72684;SDS011;61365;52.162;4.500;2023-03-13T09:06:25;21.42;;;3.10;;
72684;SDS011;61365;52.162;4.500;2023-03-13T09:08:51;20.35;;;3.05;;
72684;SDS011;61365;52.162;4.500;2023-03-13T09:11:18;16.73;;;3.47;;
72684;SDS011;61365;52.162;4.500;2023-03-13T09:13:47;16.00;;;2.85;;
72684;SDS011;61365;52.162;4.500;2023-03-13T09:16:17;15.60;;;2.67;;
72684;SDS011;61365;52.162;4.500;2023-03-13T09:18:46;13.90;;;2.60;;
72684;SDS011;61365;52.162;4.500;2023-03-13T09:21:14;12.27;;;2.85;;
72684;SDS011;61365;52.162;4.500;2023-03-13T09:23:46;12.95;;;2.75;;
72684;SDS011;61365;52.162;4.500;2023-03-13T09:26:13;14.80;;;2.92;;
72684;SDS011;61365;52.162;4.500;2023-03-13T09:28:40;12.75;;;2.72;;
72684;SDS011;61365;52.162;4.500;2023-03-13T09:33:46;13.70;;;2.88;;
72684;SDS011;61365;52.162;4.500;2023-03-13T09:36:14;12.25;;;2.70;;
72684;SDS011;61365;52.162;4.500;2023-03-13T09:38:41;12.60;;;2.65;;
72684;SDS011;61365;52.162;4.500;2023-03-13T09:49:25;12.55;;;2.33;;
72684;SDS011;61365;52.162;4.500;2023-03-13T09:52:10;8.43;;;2.08;;
72684;SDS011;61365;52.162;4.500;2023-03-13T09:54:47;6.22;;;1.60;;
72684;SDS011;61365;52.162;4.500;2023-03-13T09:57:32;9.85;;;2.05;;
72684;SDS011;61365;52.162;4.500;2023-03-13T10:00:18;14.63;;;2.33;;
72684;SDS011;61365;52.162;4.500;2023-03-13T10:05:37;7.88;;;1.52;;
72684;SDS011;61365;52.162;4.500;2023-03-13T10:10:50;9.95;;;2.05;;
72684;SDS011;61365;52.162;4.500;2023-03-13T10:16:23;8.45;;;1.75;;
72684;SDS011;61365;52.162;4.500;2023-03-13T10:18:57;11.10;;;2.08;;
72684;SDS011;61365;52.162;4.500;2023-03-13T10:21:33;15.07;;;2.63;;
72684;SDS011;61365;52.162;4.500;2023-03-13T10:24:13;8.43;;;1.65;;
72684;SDS011;61365;52.162;4.500;2023-03-13T10:27:10;12.20;;;2.35;;
72684;SDS011;61365;52.162;4.500;2023-03-13T10:29:39;9.65;;;1.80;;
72684;SDS011;61365;52.162;4.500;2023-03-13T10:32:06;12.77;;;2.67;;
72684;SDS011;61365;52.162;4.500;2023-03-13T10:37:30;11.95;;;2.83;;
72684;SDS011;61365;52.162;4.500;2023-03-13T10:40:20;14.50;;;2.47;;
72684;SDS011;61365;52.162;4.500;2023-03-13T10:42:53;10.43;;;2.28;;
72684;SDS011;61365;52.162;4.500;2023-03-13T10:45:32;11.90;;;2.92;;
72684;SDS011;61365;52.162;4.500;2023-03-13T10:48:09;13.85;;;2.67;;
72684;SDS011;61365;52.162;4.500;2023-03-13T10:50:40;13.63;;;3.15;;
72684;SDS011;61365;52.162;4.500;2023-03-13T10:55:51;15.27;;;2.70;;
72684;SDS011;61365;52.162;4.500;2023-03-13T10:58:25;13.18;;;2.60;;
72684;SDS011;61365;52.162;4.500;2023-03-13T11:03:42;14.38;;;2.90;;
72684;SDS011;61365;52.162;4.500;2023-03-13T11:06:44;10.77;;;2.35;;
72684;SDS011;61365;52.162;4.500;2023-03-13T11:12:21;14.27;;;3.05;;
72684;SDS011;61365;52.162;4.500;2023-03-13T11:14:36;21.02;;;3.15;;
72684;SDS011;61365;52.162;4.500;2023-03-13T11:17:07;17.50;;;3.00;;
72684;SDS011;61365;52.162;4.500;2023-03-13T11:28:27;12.90;;;3.13;;
72684;SDS011;61365;52.162;4.500;2023-03-13T11:42:45;19.42;;;3.65;;
72684;SDS011;61365;52.162;4.500;2023-03-13T11:48:32;20.90;;;3.63;;
72684;SDS011;61365;52.162;4.500;2023-03-13T11:56:54;20.13;;;3.22;;
72684;SDS011;61365;52.162;4.500;2023-03-13T12:02:45;27.65;;;3.90;;
72684;SDS011;61365;52.162;4.500;2023-03-13T12:05:24;24.90;;;4.05;;
72684;SDS011;61365;52.162;4.500;2023-03-13T12:07:55;27.45;;;3.75;;
72684;SDS011;61365;52.162;4.500;2023-03-13T12:10:33;15.93;;;3.35;;
72684;SDS011;61365;52.162;4.500;2023-03-13T12:13:14;22.98;;;4.60;;
72684;SDS011;61365;52.162;4.500;2023-03-13T12:15:50;21.13;;;4.03;;
72684;SDS011;61365;52.162;4.500;2023-03-13T12:32:35;20.27;;;3.97;;
72684;SDS011;61365;52.162;4.500;2023-03-13T12:35:14;24.63;;;3.95;;
72684;SDS011;61365;52.162;4.500;2023-03-13T12:40:28;22.70;;;3.88;;
72684;SDS011;61365;52.162;4.500;2023-03-13T12:49:19;21.35;;;3.92;;
72684;SDS011;61365;52.162;4.500;2023-03-13T12:55:38;20.08;;;3.92;;
72684;SDS011;61365;52.162;4.500;2023-03-13T12:59:05;25.67;;;4.38;;
72684;SDS011;61365;52.162;4.500;2023-03-13T13:01:41;19.70;;;3.90;;
72684;SDS011;61365;52.162;4.500;2023-03-13T13:04:16;23.85;;;4.55;;
72684;SDS011;61365;52.162;4.500;2023-03-13T13:09:34;31.67;;;4.55;;
72684;SDS011;61365;52.162;4.500;2023-03-13T13:12:20;26.00;;;4.30;;
72684;SDS011;61365;52.162;4.500;2023-03-13T13:17:26;32.95;;;4.43;;
72684;SDS011;61365;52.162;4.500;2023-03-13T13:28:51;28.00;;;4.95;;
72684;SDS011;61365;52.162;4.500;2023-03-13T13:39:44;24.15;;;5.00;;
72684;SDS011;61365;52.162;4.500;2023-03-13T13:47:48;32.70;;;4.72;;
72684;SDS011;61365;52.162;4.500;2023-03-13T13:52:49;27.63;;;4.75;;
72684;SDS011;61365;52.162;4.500;2023-03-13T13:55:40;22.42;;;4.57;;
72684;SDS011;61365;52.162;4.500;2023-03-13T13:58:22;28.15;;;4.35;;
72684;SDS011;61365;52.162;4.500;2023-03-13T14:00:57;28.90;;;4.70;;
72684;SDS011;61365;52.162;4.500;2023-03-13T14:03:29;28.15;;;4.60;;
72684;SDS011;61365;52.162;4.500;2023-03-13T14:06:02;27.23;;;4.72;;
72684;SDS011;61365;52.162;4.500;2023-03-13T14:08:48;25.40;;;5.25;;
72684;SDS011;61365;52.162;4.500;2023-03-13T14:11:23;31.45;;;4.35;;
72684;SDS011;61365;52.162;4.500;2023-03-13T14:16:54;20.52;;;4.18;;
72684;SDS011;61365;52.162;4.500;2023-03-13T14:22:06;24.67;;;4.55;;
72684;SDS011;61365;52.162;4.500;2023-03-13T14:24:39;28.80;;;5.03;;
72684;SDS011;61365;52.162;4.500;2023-03-13T14:27:15;26.75;;;4.93;;
72684;SDS011;61365;52.162;4.500;2023-03-13T14:30:04;22.50;;;4.20;;
72684;SDS011;61365;52.162;4.500;2023-03-13T14:32:36;29.45;;;4.68;;
72684;SDS011;61365;52.162;4.500;2023-03-13T14:35:04;25.45;;;3.95;;
72684;SDS011;61365;52.162;4.500;2023-03-13T14:42:46;28.50;;;5.40;;
72684;SDS011;61365;52.162;4.500;2023-03-13T14:45:32;27.20;;;4.93;;
72684;SDS011;61365;52.162;4.500;2023-03-13T14:48:18;26.58;;;4.43;;
72684;SDS011;61365;52.162;4.500;2023-03-13T14:50:52;30.45;;;4.80;;
72684;SDS011;61365;52.162;4.500;2023-03-13T14:53:33;28.02;;;4.55;;
72684;SDS011;61365;52.162;4.500;2023-03-13T14:56:13;29.45;;;4.60;;
72684;SDS011;61365;52.162;4.500;2023-03-13T14:58:46;31.90;;;4.70;;
72684;SDS011;61365;52.162;4.500;2023-03-13T15:01:23;23.20;;;4.93;;
72684;SDS011;61365;52.162;4.500;2023-03-13T15:03:55;35.20;;;6.20;;
72684;SDS011;61365;52.162;4.500;2023-03-13T15:06:22;24.35;;;4.70;;
72684;SDS011;61365;52.162;4.500;2023-03-13T15:09:09;29.70;;;5.18;;
72684;SDS011;61365;52.162;4.500;2023-03-13T15:11:53;31.70;;;5.73;;
72684;SDS011;61365;52.162;4.500;2023-03-13T15:14:31;30.50;;;5.25;;
72684;SDS011;61365;52.162;4.500;2023-03-13T15:19:56;31.50;;;5.07;;
72684;SDS011;61365;52.162;4.500;2023-03-13T15:22:31;31.02;;;5.38;;
72684;SDS011;61365;52.162;4.500;2023-03-13T15:25:03;26.63;;;4.97;;
72684;SDS011;61365;52.162;4.500;2023-03-13T15:27:42;26.60;;;4.95;;
72684;SDS011;61365;52.162;4.500;2023-03-13T15:30:13;31.45;;;4.78;;
72684;SDS011;61365;52.162;4.500;2023-03-13T15:32:45;32.13;;;5.40;;
72684;SDS011;61365;52.162;4.500;2023-03-13T15:37:49;25.25;;;4.53;;
72684;SDS011;61365;52.162;4.500;2023-03-13T15:40:16;27.25;;;4.75;;
72684;SDS011;61365;52.162;4.500;2023-03-13T15:42:43;27.17;;;6.00;;
72684;SDS011;61365;52.162;4.500;2023-03-13T15:45:09;23.33;;;4.80;;
72684;SDS011;61365;52.162;4.500;2023-03-13T15:47:36;21.45;;;4.90;;
72684;SDS011;61365;52.162;4.500;2023-03-13T15:50:03;33.38;;;5.05;;
72684;SDS011;61365;52.162;4.500;2023-03-13T15:52:31;29.58;;;4.82;;
72684;SDS011;61365;52.162;4.500;2023-03-13T15:55:00;34.92;;;5.60;;
72684;SDS011;61365;52.162;4.500;2023-03-13T15:57:27;27.70;;;4.40;;
72684;SDS011;61365;52.162;4.500;2023-03-13T15:59:53;26.20;;;5.10;;
72684;SDS011;61365;52.162;4.500;2023-03-13T16:02:21;29.63;;;5.25;;
72684;SDS011;61365;52.162;4.500;2023-03-13T16:04:49;30.48;;;5.18;;
72684;SDS011;61365;52.162;4.500;2023-03-13T16:07:19;26.52;;;5.32;;
72684;SDS011;61365;52.162;4.500;2023-03-13T16:09:46;28.85;;;5.45;;
72684;SDS011;61365;52.162;4.500;2023-03-13T16:12:13;28.63;;;5.90;;
72684;SDS011;61365;52.162;4.500;2023-03-13T16:14:40;28.90;;;4.55;;
72684;SDS011;61365;52.162;4.500;2023-03-13T16:17:16;30.48;;;5.43;;
72684;SDS011;61365;52.162;4.500;2023-03-13T16:19:45;25.23;;;4.75;;
72684;SDS011;61365;52.162;4.500;2023-03-13T16:22:13;27.23;;;4.05;;
72684;SDS011;61365;52.162;4.500;2023-03-13T16:24:39;24.25;;;3.60;;
72684;SDS011;61365;52.162;4.500;2023-03-13T16:27:13;24.77;;;4.47;;
72684;SDS011;61365;52.162;4.500;2023-03-13T16:29:42;31.25;;;6.22;;
72684;SDS011;61365;52.162;4.500;2023-03-13T16:32:15;35.60;;;5.40;;
72684;SDS011;61365;52.162;4.500;2023-03-13T16:34:44;29.33;;;5.13;;
72684;SDS011;61365;52.162;4.500;2023-03-13T16:37:12;28.10;;;5.05;;
72684;SDS011;61365;52.162;4.500;2023-03-13T16:39:43;26.08;;;4.57;;
72684;SDS011;61365;52.162;4.500;2023-03-13T16:42:11;25.88;;;4.75;;
72684;SDS011;61365;52.162;4.500;2023-03-13T16:44:38;29.55;;;4.78;;
72684;SDS011;61365;52.162;4.500;2023-03-13T16:47:38;28.52;;;6.18;;
72684;SDS011;61365;52.162;4.500;2023-03-13T16:49:57;27.08;;;4.20;;
72684;SDS011;61365;52.162;4.500;2023-03-13T16:52:23;25.83;;;4.63;;
72684;SDS011;61365;52.162;4.500;2023-03-13T16:54:50;33.10;;;4.88;;
72684;SDS011;61365;52.162;4.500;2023-03-13T16:57:23;29.05;;;5.35;;
72684;SDS011;61365;52.162;4.500;2023-03-13T16:59:51;33.42;;;5.88;;
72684;SDS011;61365;52.162;4.500;2023-03-13T17:02:18;32.55;;;4.88;;
72684;SDS011;61365;52.162;4.500;2023-03-13T17:04:45;31.92;;;4.93;;
72684;SDS011;61365;52.162;4.500;2023-03-13T17:07:17;19.88;;;4.78;;
72684;SDS011;61365;52.162;4.500;2023-03-13T17:09:48;36.58;;;6.18;;
72684;SDS011;61365;52.162;4.500;2023-03-13T17:12:16;30.08;;;5.25;;
72684;SDS011;61365;52.162;4.500;2023-03-13T17:14:43;30.33;;;5.13;;
72684;SDS011;61365;52.162;4.500;2023-03-13T17:17:11;34.95;;;5.47;;
72684;SDS011;61365;52.162;4.500;2023-03-13T17:19:47;30.95;;;4.78;;
72684;SDS011;61365;52.162;4.500;2023-03-13T17:22:15;25.60;;;4.75;;
72684;SDS011;61365;52.162;4.500;2023-03-13T17:24:42;26.40;;;5.68;;
72684;SDS011;61365;52.162;4.500;2023-03-13T17:27:11;30.85;;;5.25;;